Data for 08/05/2016

Time Sea-Level Adjusted Pressure Absolute Pressure Temperature Relative Humidity Dew Point   
(mb) (inHg) (mb) (inHg) (C) (F) (%) (C) (F)
00:05 1020 30.12 850 25.1 17.8 64.1 31 0.6 33.1
00:10 1020 30.12 850 25.1 17.8 64 31 0.6 33
00:15 1020 30.12 850 25.1 17.8 64 31 0.6 33.1
00:20 1020 30.12 850 25.1 17.8 64 31 0.5 33
00:25 1020 30.12 850 25.1 17.8 64 31 0.7 33.3
00:30 1020 30.12 850 25.1 17.7 63.9 31 0.7 33.2
00:35 1020 30.12 850 25.1 17.6 63.8 32 0.8 33.5
00:40 1020 30.12 849 25.07 17.5 63.5 32 0.7 33.3
00:45 1020 30.12 850 25.1 17.4 63.4 32 0.8 33.5
00:50 1020 30.12 849 25.07 17.3 63.2 32 0.8 33.5
00:55 1020 30.12 849 25.07 17.3 63.1 33 0.8 33.4
01:00 1020 30.12 849 25.07 17.2 63 33 0.9 33.6
01:05 1020 30.12 849 25.07 17.1 62.7 33 0.9 33.7
01:10 1020 30.12 850 25.1 17 62.6 33 0.9 33.6
01:15 1020 30.12 850 25.1 17 62.6 33 0.9 33.6
01:20 1020 30.12 849 25.07 16.9 62.5 34 0.9 33.7
01:25 1020 30.12 849 25.07 16.9 62.4 34 0.9 33.6
01:30 1020 30.12 849 25.07 16.8 62.2 34 1 33.9
01:35 1020 30.12 849 25.07 16.7 62.1 34 1 33.8
01:40 1020 30.12 849 25.07 16.7 62 34 1 33.8
01:45 1020 30.12 849 25.07 16.6 62 34 1 33.8
01:50 1020 30.12 849 25.07 16.7 62 34 1 33.8
01:55 1020 30.12 849 25.07 16.7 62 34 1 33.8
02:00 1020 30.12 849 25.07 16.7 62.1 34 1 33.8
02:05 1020 30.12 849 25.07 16.6 62 35 1.1 34
02:10 1020 30.12 849 25.07 16.7 62 34 1 33.9
02:15 1020 30.12 849 25.07 16.6 61.8 35 1.1 34
02:20 1020 30.12 849 25.07 16.5 61.8 35 1.3 34.3
02:25 1020 30.12 849 25.07 16.5 61.7 35 1.1 34
02:30 1020 30.12 849 25.07 16.6 61.8 35 1.3 34.3
02:35 1020 30.12 849 25.07 16.4 61.5 36 1.3 34.4
02:40 1020 30.12 849 25.07 16.3 61.4 36 1.4 34.5
02:45 1020 30.12 849 25.07 16.3 61.4 36 1.4 34.4
02:50 1020 30.12 849 25.07 16.3 61.4 36 1.5 34.7
02:55 1020 30.12 849 25.07 16.3 61.3 37 1.7 35
03:00 1020 30.12 849 25.07 16.2 61.2 37 1.6 35
03:05 1020 30.12 849 25.07 16.2 61.1 37 1.7 35
03:10 1020 30.12 849 25.07 16.1 61 38 1.9 35.4
03:15 1020 30.12 849 25.07 16 60.8 38 1.9 35.4
03:20 1020 30.12 849 25.07 16 60.8 38 1.9 35.4
03:25 1020 30.12 849 25.07 16 60.7 39 2 35.6
03:30 1020 30.12 849 25.07 16.1 60.9 39 2.1 35.8
03:35 1020 30.12 849 25.07 16 60.8 39 2 35.6
03:40 1020 30.12 849 25.07 16 60.8 39 2.1 35.8
03:45 1020 30.12 849 25.07 16 60.8 39 2.2 36
03:50 1020 30.12 849 25.07 16 60.8 39 2.2 35.9
03:55 1020 30.12 849 25.07 16 60.8 39 2.1 35.8
04:00 1020 30.12 849 25.07 16 60.8 39 2.2 36
04:05 1020 30.12 849 25.07 16 60.8 39 2.3 36.1
04:10 1020 30.12 849 25.07 16 60.8 39 2.3 36.1
04:15 1020 30.12 849 25.07 16 60.9 39 2.3 36.1
04:20 1020 30.12 849 25.07 16 60.8 40 2.3 36.2
04:25 1020 30.12 849 25.07 16 60.7 40 2.4 36.3
04:30 1020 30.12 849 25.07 15.9 60.7 40 2.4 36.3
04:35 1020 30.12 849 25.07 15.9 60.7 40 2.5 36.5
04:40 1020 30.12 849 25.07 15.9 60.7 40 2.4 36.4
04:45 1020 30.12 849 25.07 16.1 61 39 2.2 36
04:50 1020 30.12 849 25.07 16.1 61 39 2.4 36.2
04:55 1020 30.12 849 25.07 16 60.8 40 2.6 36.6
05:00 1020 30.12 849 25.07 15.7 60.3 41 2.6 36.6
05:05 1020 30.12 849 25.07 15.8 60.4 40 2.4 36.3
05:10 1020 30.12 849 25.07 15.8 60.4 40 2.4 36.3
05:15 1020 30.12 849 25.07 15.7 60.3 41 2.6 36.7
05:20 1020 30.12 849 25.07 15.6 60 41 2.5 36.5
05:25 1020 30.12 849 25.07 15.5 59.9 42 2.6 36.7
05:30 1020 30.12 849 25.07 15.4 59.6 41 2.4 36.3
05:35 1020 30.12 849 25.07 15.4 59.6 42 2.6 36.7
05:40 1020 30.12 849 25.07 15.4 59.7 42 2.6 36.6
05:45 1020 30.12 849 25.07 15.5 59.9 41 2.5 36.5
05:50 1020 30.12 850 25.1 15.6 60.1 41 2.6 36.8
05:55 1020 30.12 850 25.1 15.6 60.1 41 2.7 36.8
06:00 1020 30.12 850 25.1 15.6 60.1 42 2.8 37.1
06:05 1020 30.12 850 25.1 15.6 60 42 2.7 36.9
06:10 1021 30.15 850 25.1 15.6 60.1 41 2.7 36.8
06:15 1021 30.15 850 25.1 15.7 60.3 42 2.8 37
06:20 1021 30.15 850 25.1 15.8 60.5 41 2.7 36.9
06:25 1021 30.15 850 25.1 15.9 60.5 41 2.8 37
06:30 1021 30.15 850 25.1 15.9 60.6 41 2.8 37
06:35 1021 30.15 850 25.1 15.9 60.7 40 2.5 36.5
06:40 1021 30.15 850 25.1 16.1 60.9 40 2.4 36.4
06:45 1021 30.15 850 25.1 16.2 61.2 39 2.4 36.3
06:50 1021 30.15 850 25.1 16.3 61.3 39 2.3 36.2
06:55 1021 30.15 850 25.1 16.4 61.5 39 2.4 36.3
07:00 1021 30.15 850 25.1 16.5 61.6 39 2.6 36.8
07:05 1021 30.15 850 25.1 16.6 61.8 39 2.8 37
07:10 1021 30.15 850 25.1 16.7 62 38 2.4 36.4
07:15 1021 30.15 850 25.1 16.9 62.4 38 2.5 36.5
07:20 1021 30.15 850 25.1 17 62.7 39 2.9 37.3
07:25 1021 30.15 850 25.1 17.3 63.1 37 2.6 36.7
07:30 1021 30.15 850 25.1 17.4 63.2 36 2.4 36.4
07:35 1021 30.15 850 25.1 17.4 63.3 36 2.3 36.1
07:40 1021 30.15 850 25.1 17.7 63.8 35 2.2 35.9
07:45 1020 30.12 850 25.1 17.8 64 36 2.4 36.4
07:50 1020 30.12 850 25.1 17.9 64.1 36 2.6 36.8
07:55 1020 30.12 850 25.1 18 64.4 35 2.5 36.5
08:00 1020 30.12 850 25.1 18.2 64.7 34 2.1 35.8
08:05 1020 30.12 849 25.07 18.4 65.1 34 2.2 35.9
08:10 1020 30.12 849 25.07 18.6 65.4 33 2.2 36
08:15 1020 30.12 849 25.07 18.7 65.6 33 2.3 36.2
08:20 1020 30.12 849 25.07 18.7 65.7 32 1.8 35.3
08:25 1020 30.12 849 25.07 18.8 65.8 33 2.1 35.8
08:30 1020 30.12 849 25.07 19 66.2 32 1.9 35.4
08:35 1020 30.12 849 25.07 19.1 66.4 31 1.9 35.5
08:40 1020 30.12 849 25.07 19.2 66.6 31 1.7 35.1
08:45 1020 30.12 849 25.07 19.4 66.9 31 1.9 35.5
08:50 1020 30.12 849 25.07 19.5 67.1 31 2.2 36
08:55 1020 30.12 849 25.07 19.7 67.4 30 2 35.6
09:00 1020 30.12 849 25.07 20 67.9 30 1.8 35.3
09:05 1020 30.12 849 25.07 20.2 68.3 29 1.6 34.9
09:10 1020 30.12 849 25.07 20.2 68.4 29 1.9 35.4
09:15 1020 30.12 849 25.07 20.2 68.4 29 1.8 35.3
09:20 1020 30.12 849 25.07 20.8 69.4 27 1.5 34.7
09:25 1020 30.12 849 25.07 21.2 70.1 27 1.7 35
09:30 1020 30.12 849 25.07 21.3 70.4 27 1.9 35.4
09:35 1020 30.12 849 25.07 21.5 70.6 27 1.9 35.5
09:40 1020 30.12 849 25.07 21.9 71.4 26 1.7 35.1
09:45 1020 30.12 849 25.07 22.2 71.9 27 2.5 36.4
09:50 1020 30.12 849 25.07 22.3 72.1 27 2.5 36.4
09:55 1020 30.12 849 25.07 22.7 72.8 27 2.9 37.3
10:00 1020 30.12 849 25.07 22.7 72.8 26 2.5 36.5
10:05 1020 30.12 849 25.07 22.6 72.6 26 2.5 36.5
10:10 1020 30.12 849 25.07 23.2 73.7 27 3.5 38.2
10:15 1020 30.12 849 25.07 23 73.3 25 2.2 36
10:20 1020 30.12 849 25.07 23.4 74.1 25 2.6 36.6
10:25 1020 30.12 849 25.07 23.3 73.9 26 2.9 37.2
10:30 1020 30.12 849 25.07 23.7 74.6 26 3.1 37.6
10:35 1020 30.12 849 25.07 23.6 74.4 24 2.2 36
10:40 1020 30.12 849 25.07 23.5 74.2 26 2.9 37.2
10:45 1020 30.12 849 25.07 23.3 73.9 26 3.1 37.5
10:50 1020 30.12 849 25.07 23.1 73.7 26 2.9 37.1
10:55 1020 30.12 849 25.07 23.6 74.4 24 2.3 36.1
11:00 1020 30.12 849 25.07 23.5 74.3 25 2.7 36.8
11:05 1020 30.12 849 25.07 24 75.2 25 3 37.5
11:10 1020 30.12 849 25.07 24.2 75.6 24 2.7 36.8
11:15 1019 30.09 849 25.07 24.5 76.1 25 3.2 37.8
11:20 1019 30.09 849 25.07 24.5 76.1 24 3.1 37.6
11:25 1019 30.09 849 25.07 24.9 76.9 24 3.3 38
11:30 1019 30.09 849 25.07 24.6 76.3 24 3.2 37.7
11:35 1019 30.09 849 25.07 24.4 75.9 24 2.8 37.1
11:40 1019 30.09 848 25.04 24.9 76.7 22 2.2 36
11:45 1019 30.09 848 25.04 25.8 78.4 22 2.7 36.9
11:50 1019 30.09 848 25.04 26.3 79.3 22 3.3 38
11:55 1019 30.09 848 25.04 26.3 79.4 21 2.6 36.7
12:00 1019 30.09 848 25.04 25.9 78.5 21 2.1 35.7
12:05 1019 30.09 848 25.04 26.1 78.9 19 1.3 34.3
12:10 1019 30.09 848 25.04 26.1 79 19 1.2 34.2
12:15 1019 30.09 848 25.04 26.7 80.1 20 1.9 35.4
12:20 1019 30.09 848 25.04 26.4 79.4 23 3.8 38.8
12:25 1019 30.09 848 25.04 26.5 79.7 22 3.5 38.2
12:30 1019 30.09 848 25.04 26.5 79.7 21 2.8 37.1
12:35 1019 30.09 848 25.04 26.5 79.7 19 1.4 34.5
12:40 1019 30.09 848 25.04 26.7 80 22 3.2 37.8
12:45 1019 30.09 848 25.04 26.4 79.5 21 2.7 36.9
12:50 1019 30.09 848 25.04 26.7 80.1 21 3.2 37.7
12:55 1019 30.09 848 25.04 27.3 81.1 20 2.6 36.7
13:00 1019 30.09 848 25.04 27 80.7 21 2.9 37.2
13:05 1019 30.09 848 25.04 27.4 81.3 21 3.4 38.1
13:10 1019 30.09 848 25.04 27.3 81.1 22 3.8 38.8
13:15 1019 30.09 848 25.04 27.4 81.3 21 3.3 37.9
13:20 1019 30.09 848 25.04 28 82.3 21 3.7 38.7
13:25 1019 30.09 848 25.04 27.4 81.2 20 2.6 36.8
13:30 1019 30.09 848 25.04 27.9 82.2 17 1 33.8
13:35 1018 30.06 848 25.04 27.7 81.8 18 1.7 35
13:40 1018 30.06 848 25.04 28.3 82.9 17 1.1 34
13:45 1018 30.06 848 25.04 28.4 83 16 0.3 32.5
13:50 1018 30.06 848 25.04 28.2 82.7 17 0.8 33.4
13:55 1018 30.06 848 25.04 28.5 83.3 16 0.5 32.9
14:00 1018 30.06 848 25.04 28.2 82.8 16 0.3 32.6
14:05 1018 30.06 848 25.04 28.4 83.1 15 -0.1 31.8
14:10 1018 30.06 847 25.01 28.5 83.4 18 1.9 35.5
14:15 1018 30.06 847 25.01 28.5 83.2 17 1.4 34.4
14:20 1018 30.06 847 25.01 28.4 83 17 1.2 34.2
14:25 1018 30.06 847 25.01 28.3 82.9 17 0.8 33.5
14:30 1018 30.06 847 25.01 28.6 83.4 16 0.2 32.4
14:35 1018 30.06 847 25.01 28.7 83.7 16 0.4 32.7
14:40 1018 30.06 847 25.01 29.2 84.6 15 0.6 33.1
14:45 1018 30.06 847 25.01 29.4 84.9 15 0.7 33.2
14:50 1018 30.06 847 25.01 29.6 85.3 15 0.7 33.3
14:55 1018 30.06 847 25.01 28.8 83.9 17 1.8 35.2
15:00 1018 30.06 847 25.01 28.5 83.2 18 2.1 35.8
15:05 1018 30.06 847 25.01 28.2 82.8 19 2.9 37.2
15:10 1018 30.06 847 25.01 28.1 82.5 19 2.3 36.1
15:15 1018 30.06 847 25.01 28.4 83 17 1.3 34.3
15:20 1018 30.06 847 25.01 28.2 82.8 18 1.9 35.5
15:25 1018 30.06 847 25.01 28.1 82.5 19 2.8 37.1
15:30 1018 30.06 847 25.01 28.4 83 18 1.7 35.1
15:35 1018 30.06 847 25.01 28.8 83.8 18 2.1 35.8
15:40 1018 30.06 847 25.01 28.7 83.7 17 2 35.5
15:45 1018 30.06 847 25.01 28.4 83.1 18 2.1 35.7
15:50 1018 30.06 847 25.01 28.2 82.7 18 1.7 35
15:55 1018 30.06 847 25.01 28 82.4 18 1.5 34.7
16:00 1018 30.06 847 25.01 28.2 82.8 18 2 35.6
16:05 1017 30.03 847 25.01 28 82.3 19 2.2 35.9
16:10 1017 30.03 847 25.01 27.8 82 19 2 35.6
16:15 1018 30.06 847 25.01 27.7 81.8 18 1.8 35.2
16:20 1018 30.06 847 25.01 27.7 81.8 18 1.3 34.4
16:25 1017 30.03 847 25.01 27.5 81.5 19 2.2 36
16:30 1017 30.03 847 25.01 27.4 81.4 18 1.6 34.9
16:35 1017 30.03 847 25.01 27.4 81.3 18 1.5 34.7
16:40 1017 30.03 847 25.01 27.4 81.3 18 1.1 33.9
16:45 1017 30.03 847 25.01 27.4 81.4 18 0.9 33.6
16:50 1017 30.03 846 24.98 27.4 81.2 18 1.4 34.5
16:55 1017 30.03 846 24.98 27.2 80.9 19 1.7 35
17:00 1017 30.03 846 24.98 27.1 80.8 18 0.9 33.6
17:05 1017 30.03 846 24.98 27.1 80.7 18 1.4 34.4
17:10 1017 30.03 846 24.98 27.1 80.7 18 1.1 34
17:15 1017 30.03 846 24.98 27 80.6 18 1.3 34.4
17:20 1017 30.03 846 24.98 27 80.5 17 0.3 32.5
17:25 1017 30.03 846 24.98 26.9 80.5 16 -0.4 31.4
17:30 1017 30.03 846 24.98 26.9 80.5 17 0 32
17:35 1017 30.03 846 24.98 27 80.5 17 0.2 32.4
17:40 1017 30.03 846 24.98 26.9 80.4 18 0.9 33.5
17:45 1017 30.03 847 25.01 26.8 80.2 19 1.3 34.3
17:50 1017 30.03 847 25.01 26.7 80 19 1.1 34
17:55 1017 30.03 847 25.01 26.5 79.8 20 1.9 35.4
18:00 1017 30.03 846 24.98 26.4 79.5 18 0.6 33.1
18:05 1017 30.03 846 24.98 26.5 79.6 19 1.4 34.5
18:10 1017 30.03 846 24.98 26.4 79.6 19 1 33.7
18:15 1017 30.03 846 24.98 26.4 79.5 19 1.2 34.1
18:20 1017 30.03 847 25.01 26.4 79.4 18 0.5 32.9
18:25 1018 30.06 847 25.01 26.3 79.4 19 1 33.8
18:30 1018 30.06 847 25.01 26.2 79.1 19 1.2 34.2
18:35 1018 30.06 847 25.01 26 78.9 20 1.3 34.3
18:40 1018 30.06 847 25.01 25.9 78.7 20 1.2 34.2
18:45 1018 30.06 847 25.01 25.8 78.5 20 1.6 35
18:50 1018 30.06 847 25.01 25.7 78.2 21 1.8 35.2
18:55 1018 30.06 847 25.01 25.6 78.1 21 1.9 35.3
19:00 1018 30.06 847 25.01 25.5 77.8 21 2 35.7
19:05 1018 30.06 847 25.01 25.4 77.8 21 1.8 35.2
19:10 1018 30.06 847 25.01 25.4 77.6 21 1.9 35.4
19:15 1018 30.06 847 25.01 25.2 77.4 21 1.9 35.4
19:20 1018 30.06 847 25.01 25.1 77.2 22 2 35.6
19:25 1018 30.06 847 25.01 25.1 77.1 21 1.7 35.1
19:30 1017 30.03 847 25.01 25 77 22 1.8 35.2
19:35 1017 30.03 846 24.98 25 76.9 20 1 33.7
19:40 1017 30.03 846 24.98 25.3 77.5 20 0.8 33.4
19:45 1017 30.03 847 25.01 25.2 77.4 20 1.3 34.3
19:50 1018 30.06 847 25.01 25.1 77.1 20 1.1 33.9
19:55 1018 30.06 847 25.01 25 77 20 0.8 33.4
20:00 1018 30.06 847 25.01 25.1 77.1 20 1.1 33.9
20:05 1018 30.06 847 25.01 25 77 21 1.1 34
20:10 1018 30.06 847 25.01 24.9 76.9 21 1 33.9
20:15 1018 30.06 847 25.01 24.9 76.8 20 0.9 33.7
20:20 1018 30.06 847 25.01 24.9 76.7 21 1 33.8
20:25 1018 30.06 847 25.01 24.7 76.5 21 0.9 33.7
20:30 1018 30.06 847 25.01 24.7 76.4 21 1 33.8
20:35 1018 30.06 847 25.01 24.6 76.2 21 1 33.8
20:40 1018 30.06 847 25.01 24.6 76.3 21 1.3 34.4
20:45 1018 30.06 847 25.01 24.4 75.9 22 1.4 34.4
20:50 1018 30.06 847 25.01 24.3 75.8 22 1.4 34.6
20:55 1018 30.06 847 25.01 24.3 75.7 22 1.3 34.4
21:00 1018 30.06 847 25.01 24.2 75.6 22 1.4 34.4
21:05 1018 30.06 847 25.01 24.2 75.6 22 1.3 34.3
21:10 1018 30.06 847 25.01 24.2 75.5 22 1.3 34.4
21:15 1018 30.06 847 25.01 24.1 75.3 22 1.3 34.3
21:20 1018 30.06 847 25.01 24.1 75.3 22 1.3 34.4
21:25 1018 30.06 847 25.01 24.1 75.4 22 1.1 34
21:30 1018 30.06 847 25.01 24.1 75.4 22 1.2 34.1
21:35 1018 30.06 847 25.01 24 75.3 22 1.2 34.2
21:40 1018 30.06 847 25.01 24 75.2 22 1.3 34.4
21:45 1018 30.06 847 25.01 23.8 74.8 23 1.4 34.5
21:50 1018 30.06 847 25.01 23.7 74.6 23 1.3 34.3
21:55 1018 30.06 847 25.01 23.8 74.8 22 1.1 34.1
22:00 1018 30.06 847 25.01 23.8 74.8 22 1.2 34.1
22:05 1018 30.06 847 25.01 23.7 74.6 22 1.2 34.1
22:10 1018 30.06 847 25.01 23.6 74.5 23 1.2 34.2
22:15 1018 30.06 847 25.01 23.5 74.3 23 1.5 34.6
22:20 1018 30.06 847 25.01 23.4 74 23 1.2 34.2
22:25 1017 30.03 847 25.01 23.3 74 23 1.4 34.4
22:30 1017 30.03 847 25.01 23.2 73.8 23 1.3 34.3
22:35 1017 30.03 847 25.01 23.1 73.6 23 1.2 34.1
22:40 1017 30.03 847 25.01 23.1 73.5 23 1.1 33.9
22:45 1017 30.03 846 24.98 23.1 73.6 24 1.4 34.5
22:50 1017 30.03 846 24.98 23.1 73.6 23 1.3 34.3
22:55 1017 30.03 846 24.98 23.2 73.7 23 1.3 34.4
23:00 1017 30.03 846 24.98 23.1 73.6 24 1.4 34.5
23:05 1017 30.03 846 24.98 23.1 73.5 24 1.4 34.5
23:10 1017 30.03 846 24.98 23.1 73.5 24 1.5 34.7
23:15 1017 30.03 846 24.98 23 73.4 24 1.4 34.6
23:20 1017 30.03 846 24.98 23.1 73.5 24 1.5 34.8
23:25 1017 30.03 846 24.98 23.1 73.6 24 1.6 34.8
23:30 1017 30.03 846 24.98 23.2 73.7 24 1.5 34.7
23:35 1017 30.03 846 24.98 23.2 73.7 24 1.6 35
23:40 1017 30.03 846 24.98 23.2 73.7 24 1.6 34.9
23:45 1017 30.03 846 24.98 23.1 73.7 24 1.7 35
23:50 1017 30.03 846 24.98 23.2 73.8 23 1.4 34.6
23:55 1017 30.03 847 25.01 23.4 74.1 23 1.5 34.7
24:00 1017 30.03 847 25.01 23.3 74 23 1.5 34.7